sensor_id;sensor_type;location;lat;lon;timestamp;temperature;humidity
12922;DHT22;6528;48.086;16.282;2022-07-23T00:01:31;24.60;98.30
12922;DHT22;6528;48.086;16.282;2022-07-23T00:03:59;24.60;99.90
12922;DHT22;6528;48.086;16.282;2022-07-23T00:06:26;24.60;99.90
12922;DHT22;6528;48.086;16.282;2022-07-23T00:08:53;24.60;99.90
12922;DHT22;6528;48.086;16.282;2022-07-23T00:11:20;24.50;97.00
12922;DHT22;6528;48.086;16.282;2022-07-23T00:13:48;24.60;96.80
12922;DHT22;6528;48.086;16.282;2022-07-23T00:16:15;24.50;97.00
12922;DHT22;6528;48.086;16.282;2022-07-23T00:18:42;24.50;98.10
12922;DHT22;6528;48.086;16.282;2022-07-23T00:21:09;24.40;99.90
12922;DHT22;6528;48.086;16.282;2022-07-23T00:23:35;24.40;99.90
12922;DHT22;6528;48.086;16.282;2022-07-23T00:26:02;24.40;99.90
12922;DHT22;6528;48.086;16.282;2022-07-23T00:28:29;24.30;99.90
12922;DHT22;6528;48.086;16.282;2022-07-23T00:30:56;24.40;99.90
12922;DHT22;6528;48.086;16.282;2022-07-23T00:33:23;24.30;99.90
12922;DHT22;6528;48.086;16.282;2022-07-23T00:35:50;24.30;99.90
12922;DHT22;6528;48.086;16.282;2022-07-23T00:38:17;24.40;99.90
12922;DHT22;6528;48.086;16.282;2022-07-23T00:40:43;24.40;99.90
12922;DHT22;6528;48.086;16.282;2022-07-23T00:43:10;24.40;99.90
12922;DHT22;6528;48.086;16.282;2022-07-23T00:45:37;24.40;99.90
12922;DHT22;6528;48.086;16.282;2022-07-23T00:48:04;24.40;99.90
12922;DHT22;6528;48.086;16.282;2022-07-23T00:50:31;24.40;99.90
12922;DHT22;6528;48.086;16.282;2022-07-23T00:52:58;24.40;99.90
12922;DHT22;6528;48.086;16.282;2022-07-23T00:55:25;24.40;99.90
12922;DHT22;6528;48.086;16.282;2022-07-23T00:57:53;24.40;99.90
12922;DHT22;6528;48.086;16.282;2022-07-23T01:00:21;24.40;99.90
12922;DHT22;6528;48.086;16.282;2022-07-23T01:02:48;24.40;99.90
12922;DHT22;6528;48.086;16.282;2022-07-23T01:05:15;24.30;99.90
12922;DHT22;6528;48.086;16.282;2022-07-23T01:07:44;24.30;99.90
12922;DHT22;6528;48.086;16.282;2022-07-23T01:10:11;24.40;99.90
12922;DHT22;6528;48.086;16.282;2022-07-23T01:13:08;24.40;99.90
12922;DHT22;6528;48.086;16.282;2022-07-23T01:15:37;24.40;99.90
12922;DHT22;6528;48.086;16.282;2022-07-23T01:18:05;24.40;99.90
12922;DHT22;6528;48.086;16.282;2022-07-23T01:20:33;24.40;99.90
12922;DHT22;6528;48.086;16.282;2022-07-23T01:23:00;24.40;99.90
12922;DHT22;6528;48.086;16.282;2022-07-23T01:25:27;24.30;99.90
12922;DHT22;6528;48.086;16.282;2022-07-23T01:27:54;24.40;99.90
12922;DHT22;6528;48.086;16.282;2022-07-23T01:30:21;24.40;99.90
12922;DHT22;6528;48.086;16.282;2022-07-23T01:32:47;24.40;99.90
12922;DHT22;6528;48.086;16.282;2022-07-23T01:35:14;24.50;99.90
12922;DHT22;6528;48.086;16.282;2022-07-23T01:37:41;24.40;99.90
12922;DHT22;6528;48.086;16.282;2022-07-23T01:40:08;24.50;99.90
12922;DHT22;6528;48.086;16.282;2022-07-23T01:42:35;24.60;99.90
12922;DHT22;6528;48.086;16.282;2022-07-23T01:45:04;24.60;99.90
12922;DHT22;6528;48.086;16.282;2022-07-23T01:47:31;24.60;99.90
12922;DHT22;6528;48.086;16.282;2022-07-23T01:49:58;24.70;99.90
12922;DHT22;6528;48.086;16.282;2022-07-23T01:52:25;24.70;99.90
12922;DHT22;6528;48.086;16.282;2022-07-23T01:54:52;24.80;99.90
12922;DHT22;6528;48.086;16.282;2022-07-23T01:57:18;24.80;99.90
12922;DHT22;6528;48.086;16.282;2022-07-23T01:59:45;24.90;99.90
12922;DHT22;6528;48.086;16.282;2022-07-23T02:02:12;25.00;99.90
12922;DHT22;6528;48.086;16.282;2022-07-23T02:04:39;25.00;99.90
12922;DHT22;6528;48.086;16.282;2022-07-23T02:07:06;25.10;99.90
12922;DHT22;6528;48.086;16.282;2022-07-23T02:09:33;25.10;99.90
12922;DHT22;6528;48.086;16.282;2022-07-23T02:12:00;25.30;99.90
12922;DHT22;6528;48.086;16.282;2022-07-23T02:14:27;25.30;99.90
12922;DHT22;6528;48.086;16.282;2022-07-23T02:16:54;25.30;99.90
12922;DHT22;6528;48.086;16.282;2022-07-23T02:19:21;25.40;99.90
12922;DHT22;6528;48.086;16.282;2022-07-23T02:21:48;25.50;99.90
12922;DHT22;6528;48.086;16.282;2022-07-23T02:24:15;25.50;99.90
12922;DHT22;6528;48.086;16.282;2022-07-23T02:26:42;25.50;99.90
12922;DHT22;6528;48.086;16.282;2022-07-23T02:29:09;25.60;99.90
12922;DHT22;6528;48.086;16.282;2022-07-23T02:31:36;25.60;99.90
12922;DHT22;6528;48.086;16.282;2022-07-23T02:34:03;25.60;99.90
12922;DHT22;6528;48.086;16.282;2022-07-23T02:36:30;25.60;99.90
12922;DHT22;6528;48.086;16.282;2022-07-23T02:38:57;25.60;99.90
12922;DHT22;6528;48.086;16.282;2022-07-23T02:41:25;25.70;99.90
12922;DHT22;6528;48.086;16.282;2022-07-23T02:43:51;25.70;99.90
12922;DHT22;6528;48.086;16.282;2022-07-23T02:46:18;25.70;99.90
12922;DHT22;6528;48.086;16.282;2022-07-23T02:48:45;25.70;99.90
12922;DHT22;6528;48.086;16.282;2022-07-23T02:51:12;25.70;99.90
12922;DHT22;6528;48.086;16.282;2022-07-23T02:53:40;25.60;99.90
12922;DHT22;6528;48.086;16.282;2022-07-23T02:56:07;25.60;99.90
12922;DHT22;6528;48.086;16.282;2022-07-23T02:58:34;25.60;99.90
12922;DHT22;6528;48.086;16.282;2022-07-23T03:01:01;25.50;99.90
12922;DHT22;6528;48.086;16.282;2022-07-23T03:03:28;25.50;99.90
12922;DHT22;6528;48.086;16.282;2022-07-23T03:05:56;25.50;99.90
12922;DHT22;6528;48.086;16.282;2022-07-23T03:08:22;25.50;99.90
12922;DHT22;6528;48.086;16.282;2022-07-23T03:10:49;25.50;99.90
12922;DHT22;6528;48.086;16.282;2022-07-23T03:13:16;25.50;99.90
12922;DHT22;6528;48.086;16.282;2022-07-23T03:15:43;25.40;99.90
12922;DHT22;6528;48.086;16.282;2022-07-23T03:18:10;25.40;99.90
12922;DHT22;6528;48.086;16.282;2022-07-23T03:20:36;25.40;99.90
12922;DHT22;6528;48.086;16.282;2022-07-23T03:23:03;25.40;99.90
12922;DHT22;6528;48.086;16.282;2022-07-23T03:25:30;25.30;99.90
12922;DHT22;6528;48.086;16.282;2022-07-23T03:27:57;25.30;99.90
12922;DHT22;6528;48.086;16.282;2022-07-23T03:30:24;25.30;99.90
12922;DHT22;6528;48.086;16.282;2022-07-23T03:32:50;25.30;99.90
12922;DHT22;6528;48.086;16.282;2022-07-23T03:35:17;25.30;99.90
12922;DHT22;6528;48.086;16.282;2022-07-23T03:37:44;25.10;99.90
12922;DHT22;6528;48.086;16.282;2022-07-23T03:40:12;25.10;99.90
12922;DHT22;6528;48.086;16.282;2022-07-23T03:42:39;25.00;99.90
12922;DHT22;6528;48.086;16.282;2022-07-23T03:45:08;25.00;99.90
12922;DHT22;6528;48.086;16.282;2022-07-23T03:47:35;25.00;99.90
12922;DHT22;6528;48.086;16.282;2022-07-23T03:50:03;24.90;99.90
12922;DHT22;6528;48.086;16.282;2022-07-23T03:52:30;24.80;99.90
12922;DHT22;6528;48.086;16.282;2022-07-23T03:54:56;24.70;99.90
12922;DHT22;6528;48.086;16.282;2022-07-23T03:57:23;24.70;99.90
12922;DHT22;6528;48.086;16.282;2022-07-23T03:59:50;24.60;99.90
12922;DHT22;6528;48.086;16.282;2022-07-23T04:02:17;24.50;99.90
12922;DHT22;6528;48.086;16.282;2022-07-23T04:04:43;24.50;99.90
12922;DHT22;6528;48.086;16.282;2022-07-23T04:07:10;24.40;99.90
12922;DHT22;6528;48.086;16.282;2022-07-23T04:09:37;24.40;99.90
12922;DHT22;6528;48.086;16.282;2022-07-23T04:12:07;24.50;99.90
12922;DHT22;6528;48.086;16.282;2022-07-23T04:14:34;24.50;99.90
12922;DHT22;6528;48.086;16.282;2022-07-23T04:17:01;24.50;99.90
12922;DHT22;6528;48.086;16.282;2022-07-23T04:19:28;24.50;99.90
12922;DHT22;6528;48.086;16.282;2022-07-23T04:21:57;24.60;99.90
12922;DHT22;6528;48.086;16.282;2022-07-23T04:24:24;24.60;99.90
12922;DHT22;6528;48.086;16.282;2022-07-23T04:26:51;24.70;99.90
12922;DHT22;6528;48.086;16.282;2022-07-23T04:29:18;24.80;99.90
12922;DHT22;6528;48.086;16.282;2022-07-23T04:31:44;24.90;99.90
12922;DHT22;6528;48.086;16.282;2022-07-23T04:34:11;25.00;99.90
12922;DHT22;6528;48.086;16.282;2022-07-23T04:36:38;25.00;99.90
12922;DHT22;6528;48.086;16.282;2022-07-23T04:39:05;25.10;99.90
12922;DHT22;6528;48.086;16.282;2022-07-23T04:41:33;25.20;99.90
12922;DHT22;6528;48.086;16.282;2022-07-23T04:44:01;25.20;99.90
12922;DHT22;6528;48.086;16.282;2022-07-23T04:46:28;25.30;99.90
12922;DHT22;6528;48.086;16.282;2022-07-23T04:48:55;25.30;99.90
12922;DHT22;6528;48.086;16.282;2022-07-23T04:51:22;25.40;99.90
12922;DHT22;6528;48.086;16.282;2022-07-23T04:53:49;25.40;99.90
12922;DHT22;6528;48.086;16.282;2022-07-23T04:56:16;25.40;99.90
12922;DHT22;6528;48.086;16.282;2022-07-23T04:58:43;25.40;99.90
12922;DHT22;6528;48.086;16.282;2022-07-23T05:01:09;25.40;99.90
12922;DHT22;6528;48.086;16.282;2022-07-23T05:03:36;25.30;99.90
12922;DHT22;6528;48.086;16.282;2022-07-23T05:06:03;25.40;99.90
12922;DHT22;6528;48.086;16.282;2022-07-23T05:08:30;25.40;99.90
12922;DHT22;6528;48.086;16.282;2022-07-23T05:10:57;25.40;99.90
12922;DHT22;6528;48.086;16.282;2022-07-23T05:13:23;25.40;99.90
12922;DHT22;6528;48.086;16.282;2022-07-23T05:15:50;25.40;99.90
12922;DHT22;6528;48.086;16.282;2022-07-23T05:18:17;25.40;99.90
12922;DHT22;6528;48.086;16.282;2022-07-23T05:20:44;25.50;99.90
12922;DHT22;6528;48.086;16.282;2022-07-23T05:23:11;25.60;99.90
12922;DHT22;6528;48.086;16.282;2022-07-23T05:25:38;25.70;99.90
12922;DHT22;6528;48.086;16.282;2022-07-23T05:28:04;25.80;99.90
12922;DHT22;6528;48.086;16.282;2022-07-23T05:30:31;25.90;99.90
12922;DHT22;6528;48.086;16.282;2022-07-23T05:32:58;26.00;99.90
12922;DHT22;6528;48.086;16.282;2022-07-23T05:35:25;26.00;99.90
12922;DHT22;6528;48.086;16.282;2022-07-23T05:37:52;26.10;98.70
12922;DHT22;6528;48.086;16.282;2022-07-23T05:40:19;26.30;96.20
12922;DHT22;6528;48.086;16.282;2022-07-23T05:42:46;26.30;97.40
12922;DHT22;6528;48.086;16.282;2022-07-23T05:45:12;26.40;98.50
12922;DHT22;6528;48.086;16.282;2022-07-23T05:47:44;26.50;99.90
12922;DHT22;6528;48.086;16.282;2022-07-23T05:50:11;26.60;99.90
12922;DHT22;6528;48.086;16.282;2022-07-23T05:52:38;26.70;99.90
12922;DHT22;6528;48.086;16.282;2022-07-23T05:55:06;26.80;99.90
12922;DHT22;6528;48.086;16.282;2022-07-23T05:57:34;27.00;99.90
12922;DHT22;6528;48.086;16.282;2022-07-23T06:00:03;27.10;99.90
12922;DHT22;6528;48.086;16.282;2022-07-23T06:02:30;27.20;99.90
12922;DHT22;6528;48.086;16.282;2022-07-23T06:04:57;27.30;94.40
12922;DHT22;6528;48.086;16.282;2022-07-23T06:07:24;27.40;92.10
12922;DHT22;6528;48.086;16.282;2022-07-23T06:09:51;27.50;91.10
12922;DHT22;6528;48.086;16.282;2022-07-23T06:12:18;27.60;91.10
12922;DHT22;6528;48.086;16.282;2022-07-23T06:14:45;27.70;90.80
12922;DHT22;6528;48.086;16.282;2022-07-23T06:17:12;27.80;90.80
12922;DHT22;6528;48.086;16.282;2022-07-23T06:19:39;28.00;90.70
12922;DHT22;6528;48.086;16.282;2022-07-23T06:22:06;28.10;90.50
12922;DHT22;6528;48.086;16.282;2022-07-23T06:24:32;28.20;90.30
12922;DHT22;6528;48.086;16.282;2022-07-23T06:26:59;28.40;90.40
12922;DHT22;6528;48.086;16.282;2022-07-23T06:29:26;28.60;89.30
12922;DHT22;6528;48.086;16.282;2022-07-23T06:31:53;28.70;89.00
12922;DHT22;6528;48.086;16.282;2022-07-23T06:34:19;28.80;88.40
12922;DHT22;6528;48.086;16.282;2022-07-23T06:36:46;28.70;88.30
12922;DHT22;6528;48.086;16.282;2022-07-23T06:39:14;28.80;88.40
12922;DHT22;6528;48.086;16.282;2022-07-23T06:41:41;28.80;87.80
12922;DHT22;6528;48.086;16.282;2022-07-23T06:44:11;28.80;86.20
12922;DHT22;6528;48.086;16.282;2022-07-23T06:46:38;28.80;86.50
12922;DHT22;6528;48.086;16.282;2022-07-23T06:49:05;28.90;86.90
12922;DHT22;6528;48.086;16.282;2022-07-23T06:51:33;28.90;86.10
12922;DHT22;6528;48.086;16.282;2022-07-23T06:54:00;28.90;85.50
12922;DHT22;6528;48.086;16.282;2022-07-23T06:56:27;29.10;85.30
12922;DHT22;6528;48.086;16.282;2022-07-23T06:58:53;29.20;84.90
12922;DHT22;6528;48.086;16.282;2022-07-23T07:01:20;29.40;84.20
12922;DHT22;6528;48.086;16.282;2022-07-23T07:03:48;30.40;82.00
12922;DHT22;6528;48.086;16.282;2022-07-23T07:06:15;32.60;77.50
12922;DHT22;6528;48.086;16.282;2022-07-23T07:08:41;34.50;71.20
12922;DHT22;6528;48.086;16.282;2022-07-23T07:11:10;35.70;65.10
12922;DHT22;6528;48.086;16.282;2022-07-23T07:13:37;36.60;61.00
12922;DHT22;6528;48.086;16.282;2022-07-23T07:16:05;37.40;57.30
12922;DHT22;6528;48.086;16.282;2022-07-23T07:18:32;37.60;55.40
12922;DHT22;6528;48.086;16.282;2022-07-23T07:20:58;37.90;55.60
12922;DHT22;6528;48.086;16.282;2022-07-23T07:23:25;38.30;54.30
12922;DHT22;6528;48.086;16.282;2022-07-23T07:25:52;38.40;53.10
12922;DHT22;6528;48.086;16.282;2022-07-23T07:47:58;39.10;51.30
12922;DHT22;6528;48.086;16.282;2022-07-23T07:50:25;42.20;47.40
12922;DHT22;6528;48.086;16.282;2022-07-23T07:52:52;41.90;46.60
12922;DHT22;6528;48.086;16.282;2022-07-23T07:55:19;41.10;45.70
12922;DHT22;6528;48.086;16.282;2022-07-23T07:57:46;39.60;47.60
12922;DHT22;6528;48.086;16.282;2022-07-23T08:00:15;38.20;50.20
12922;DHT22;6528;48.086;16.282;2022-07-23T08:07:37;36.30;52.20
12922;DHT22;6528;48.086;16.282;2022-07-23T08:10:07;35.90;54.10
12922;DHT22;6528;48.086;16.282;2022-07-23T08:12:43;35.60;54.50
12922;DHT22;6528;48.086;16.282;2022-07-23T08:15:13;35.60;56.60
12922;DHT22;6528;48.086;16.282;2022-07-23T08:17:41;36.10;55.50
12922;DHT22;6528;48.086;16.282;2022-07-23T08:20:10;36.90;55.30
12922;DHT22;6528;48.086;16.282;2022-07-23T08:22:51;37.50;52.60
12922;DHT22;6528;48.086;16.282;2022-07-23T08:25:26;37.40;52.30
12922;DHT22;6528;48.086;16.282;2022-07-23T08:27:53;37.00;52.90
12922;DHT22;6528;48.086;16.282;2022-07-23T08:30:21;37.70;52.20
12922;DHT22;6528;48.086;16.282;2022-07-23T08:33:17;38.30;51.40
12922;DHT22;6528;48.086;16.282;2022-07-23T08:36:00;38.40;51.50
12922;DHT22;6528;48.086;16.282;2022-07-23T08:38:30;39.10;50.60
12922;DHT22;6528;48.086;16.282;2022-07-23T08:40:57;39.00;50.50
12922;DHT22;6528;48.086;16.282;2022-07-23T08:43:26;38.60;49.80
12922;DHT22;6528;48.086;16.282;2022-07-23T08:45:56;37.70;52.40
12922;DHT22;6528;48.086;16.282;2022-07-23T08:48:26;37.00;52.40
12922;DHT22;6528;48.086;16.282;2022-07-23T08:50:57;36.90;53.10
12922;DHT22;6528;48.086;16.282;2022-07-23T08:53:25;37.60;53.90
12922;DHT22;6528;48.086;16.282;2022-07-23T08:55:54;38.00;51.20
12922;DHT22;6528;48.086;16.282;2022-07-23T08:58:22;38.20;49.50
12922;DHT22;6528;48.086;16.282;2022-07-23T09:00:54;37.80;51.80
12922;DHT22;6528;48.086;16.282;2022-07-23T09:03:30;38.20;52.60
12922;DHT22;6528;48.086;16.282;2022-07-23T09:05:58;38.30;51.80
12922;DHT22;6528;48.086;16.282;2022-07-23T09:08:37;38.40;50.30
12922;DHT22;6528;48.086;16.282;2022-07-23T09:11:10;38.60;52.30
12922;DHT22;6528;48.086;16.282;2022-07-23T09:16:13;39.70;48.10
12922;DHT22;6528;48.086;16.282;2022-07-23T09:18:49;39.70;49.50
12922;DHT22;6528;48.086;16.282;2022-07-23T09:21:19;40.30;47.70
12922;DHT22;6528;48.086;16.282;2022-07-23T09:28:55;42.20;45.10
12922;DHT22;6528;48.086;16.282;2022-07-23T09:31:23;43.20;45.10
12922;DHT22;6528;48.086;16.282;2022-07-23T09:33:51;43.70;43.60
12922;DHT22;6528;48.086;16.282;2022-07-23T09:36:28;44.10;44.60
12922;DHT22;6528;48.086;16.282;2022-07-23T09:38:55;44.30;43.60
12922;DHT22;6528;48.086;16.282;2022-07-23T09:41:22;44.30;43.70
12922;DHT22;6528;48.086;16.282;2022-07-23T09:43:57;44.40;44.00
12922;DHT22;6528;48.086;16.282;2022-07-23T09:46:27;44.70;41.60
12922;DHT22;6528;48.086;16.282;2022-07-23T09:48:55;44.10;41.00
12922;DHT22;6528;48.086;16.282;2022-07-23T09:51:25;43.30;44.50
12922;DHT22;6528;48.086;16.282;2022-07-23T09:53:52;43.30;45.40
12922;DHT22;6528;48.086;16.282;2022-07-23T09:56:20;43.60;43.20
12922;DHT22;6528;48.086;16.282;2022-07-23T09:58:53;44.10;42.70
12922;DHT22;6528;48.086;16.282;2022-07-23T10:01:39;44.30;43.60
12922;DHT22;6528;48.086;16.282;2022-07-23T10:04:07;43.90;43.30
12922;DHT22;6528;48.086;16.282;2022-07-23T10:06:35;43.10;43.50
12922;DHT22;6528;48.086;16.282;2022-07-23T10:09:02;42.00;43.90
12922;DHT22;6528;48.086;16.282;2022-07-23T10:11:30;41.20;46.00
12922;DHT22;6528;48.086;16.282;2022-07-23T10:13:58;40.70;45.60
12922;DHT22;6528;48.086;16.282;2022-07-23T10:16:27;40.50;44.90
12922;DHT22;6528;48.086;16.282;2022-07-23T10:18:54;40.10;45.00
12922;DHT22;6528;48.086;16.282;2022-07-23T10:21:27;40.40;45.60
12922;DHT22;6528;48.086;16.282;2022-07-23T10:27:37;41.40;43.90
12922;DHT22;6528;48.086;16.282;2022-07-23T10:30:09;41.70;44.60
12922;DHT22;6528;48.086;16.282;2022-07-23T10:33:00;41.60;44.10
12922;DHT22;6528;48.086;16.282;2022-07-23T10:35:42;41.20;44.00
12922;DHT22;6528;48.086;16.282;2022-07-23T10:38:27;41.10;45.40
12922;DHT22;6528;48.086;16.282;2022-07-23T10:41:02;40.90;45.10
12922;DHT22;6528;48.086;16.282;2022-07-23T10:43:30;40.80;46.90
12922;DHT22;6528;48.086;16.282;2022-07-23T10:46:25;40.70;45.40
12922;DHT22;6528;48.086;16.282;2022-07-23T10:49:29;40.40;45.00
12922;DHT22;6528;48.086;16.282;2022-07-23T11:02:33;37.20;52.50
12922;DHT22;6528;48.086;16.282;2022-07-23T11:05:20;37.10;51.70
12922;DHT22;6528;48.086;16.282;2022-07-23T11:10:42;36.70;51.90
12922;DHT22;6528;48.086;16.282;2022-07-23T11:16:13;36.30;51.90
12922;DHT22;6528;48.086;16.282;2022-07-23T11:37:00;36.00;53.00
12922;DHT22;6528;48.086;16.282;2022-07-23T11:39:28;35.50;54.30
12922;DHT22;6528;48.086;16.282;2022-07-23T11:41:57;35.40;54.70
12922;DHT22;6528;48.086;16.282;2022-07-23T11:44:29;35.60;55.30
12922;DHT22;6528;48.086;16.282;2022-07-23T11:47:03;35.60;55.00
12922;DHT22;6528;48.086;16.282;2022-07-23T11:49:31;35.50;56.30
12922;DHT22;6528;48.086;16.282;2022-07-23T11:52:06;35.30;55.60
12922;DHT22;6528;48.086;16.282;2022-07-23T11:54:36;35.20;56.20
12922;DHT22;6528;48.086;16.282;2022-07-23T11:57:06;35.00;56.50
12922;DHT22;6528;48.086;16.282;2022-07-23T11:59:35;35.00;57.30
12922;DHT22;6528;48.086;16.282;2022-07-23T12:02:04;34.90;57.40
12922;DHT22;6528;48.086;16.282;2022-07-23T12:04:41;34.90;58.00
12922;DHT22;6528;48.086;16.282;2022-07-23T12:09:50;34.80;58.10
12922;DHT22;6528;48.086;16.282;2022-07-23T12:12:17;34.70;57.50
12922;DHT22;6528;48.086;16.282;2022-07-23T12:14:58;34.50;58.00
12922;DHT22;6528;48.086;16.282;2022-07-23T12:17:36;34.40;57.70
12922;DHT22;6528;48.086;16.282;2022-07-23T12:27:34;33.80;57.90
12922;DHT22;6528;48.086;16.282;2022-07-23T12:35:16;33.50;58.10
12922;DHT22;6528;48.086;16.282;2022-07-23T12:37:45;32.70;59.60
12922;DHT22;6528;48.086;16.282;2022-07-23T12:40:27;32.50;59.60
12922;DHT22;6528;48.086;16.282;2022-07-23T12:42:57;32.30;59.30
12922;DHT22;6528;48.086;16.282;2022-07-23T12:45:26;32.10;59.80
12922;DHT22;6528;48.086;16.282;2022-07-23T12:48:29;31.90;58.90
12922;DHT22;6528;48.086;16.282;2022-07-23T12:51:17;31.90;58.10
12922;DHT22;6528;48.086;16.282;2022-07-23T12:53:52;31.80;59.10
12922;DHT22;6528;48.086;16.282;2022-07-23T12:56:26;31.70;62.20
12922;DHT22;6528;48.086;16.282;2022-07-23T12:58:58;31.40;67.10
12922;DHT22;6528;48.086;16.282;2022-07-23T13:09:26;31.00;72.60
12922;DHT22;6528;48.086;16.282;2022-07-23T13:11:59;29.90;71.90
12922;DHT22;6528;48.086;16.282;2022-07-23T13:14:27;30.00;73.40
12922;DHT22;6528;48.086;16.282;2022-07-23T13:16:55;30.30;71.50
12922;DHT22;6528;48.086;16.282;2022-07-23T13:26:48;30.60;67.50
12922;DHT22;6528;48.086;16.282;2022-07-23T13:29:17;31.50;59.10
12922;DHT22;6528;48.086;16.282;2022-07-23T13:31:46;31.60;56.90
12922;DHT22;6528;48.086;16.282;2022-07-23T13:34:14;31.60;56.00
12922;DHT22;6528;48.086;16.282;2022-07-23T13:36:41;31.60;57.50
12922;DHT22;6528;48.086;16.282;2022-07-23T13:39:10;31.80;56.90
12922;DHT22;6528;48.086;16.282;2022-07-23T13:41:38;32.10;56.50
12922;DHT22;6528;48.086;16.282;2022-07-23T13:44:05;32.20;56.00
12922;DHT22;6528;48.086;16.282;2022-07-23T13:46:33;32.20;56.50
12922;DHT22;6528;48.086;16.282;2022-07-23T13:49:01;32.30;56.30
12922;DHT22;6528;48.086;16.282;2022-07-23T13:53:56;32.40;55.50
12922;DHT22;6528;48.086;16.282;2022-07-23T13:56:26;32.70;56.30
12922;DHT22;6528;48.086;16.282;2022-07-23T13:58:52;32.70;56.40
12922;DHT22;6528;48.086;16.282;2022-07-23T14:01:19;32.70;54.40
12922;DHT22;6528;48.086;16.282;2022-07-23T14:03:46;32.70;55.20
12922;DHT22;6528;48.086;16.282;2022-07-23T14:06:13;32.60;56.10
12922;DHT22;6528;48.086;16.282;2022-07-23T14:08:43;32.50;55.20
12922;DHT22;6528;48.086;16.282;2022-07-23T14:11:12;32.40;55.10
12922;DHT22;6528;48.086;16.282;2022-07-23T14:13:39;32.20;54.80
12922;DHT22;6528;48.086;16.282;2022-07-23T14:16:07;32.00;55.50
12922;DHT22;6528;48.086;16.282;2022-07-23T14:18:33;31.90;55.00
12922;DHT22;6528;48.086;16.282;2022-07-23T14:21:01;31.70;57.40
12922;DHT22;6528;48.086;16.282;2022-07-23T14:23:29;31.60;56.10
12922;DHT22;6528;48.086;16.282;2022-07-23T14:25:56;31.40;56.80
12922;DHT22;6528;48.086;16.282;2022-07-23T14:28:23;31.30;58.10
12922;DHT22;6528;48.086;16.282;2022-07-23T14:30:50;31.10;58.10
12922;DHT22;6528;48.086;16.282;2022-07-23T14:33:17;31.00;58.50
12922;DHT22;6528;48.086;16.282;2022-07-23T14:35:44;31.00;59.00
12922;DHT22;6528;48.086;16.282;2022-07-23T14:38:11;31.00;59.60
12922;DHT22;6528;48.086;16.282;2022-07-23T14:40:40;31.10;59.60
12922;DHT22;6528;48.086;16.282;2022-07-23T14:43:07;31.10;59.80
12922;DHT22;6528;48.086;16.282;2022-07-23T14:45:36;31.20;59.90
12922;DHT22;6528;48.086;16.282;2022-07-23T14:48:03;31.30;58.90
12922;DHT22;6528;48.086;16.282;2022-07-23T14:50:30;31.40;58.80
12922;DHT22;6528;48.086;16.282;2022-07-23T14:52:57;31.40;58.30
12922;DHT22;6528;48.086;16.282;2022-07-23T14:55:24;31.50;58.30
12922;DHT22;6528;48.086;16.282;2022-07-23T14:57:52;31.50;58.70
12922;DHT22;6528;48.086;16.282;2022-07-23T15:00:19;31.50;58.60
12922;DHT22;6528;48.086;16.282;2022-07-23T15:02:52;31.50;58.00
12922;DHT22;6528;48.086;16.282;2022-07-23T15:05:21;31.40;58.60
12922;DHT22;6528;48.086;16.282;2022-07-23T15:07:49;31.30;59.00
12922;DHT22;6528;48.086;16.282;2022-07-23T15:10:16;31.20;60.00
12922;DHT22;6528;48.086;16.282;2022-07-23T15:13:03;31.20;60.30
12922;DHT22;6528;48.086;16.282;2022-07-23T15:15:30;31.10;61.30
12922;DHT22;6528;48.086;16.282;2022-07-23T15:17:57;31.00;59.90
12922;DHT22;6528;48.086;16.282;2022-07-23T15:20:24;31.00;60.20
12922;DHT22;6528;48.086;16.282;2022-07-23T15:22:59;30.80;58.80
12922;DHT22;6528;48.086;16.282;2022-07-23T15:25:26;30.80;59.10
12922;DHT22;6528;48.086;16.282;2022-07-23T15:27:53;30.80;59.20
12922;DHT22;6528;48.086;16.282;2022-07-23T15:30:20;30.80;59.10
12922;DHT22;6528;48.086;16.282;2022-07-23T15:32:48;30.80;59.90
12922;DHT22;6528;48.086;16.282;2022-07-23T15:35:15;30.90;60.70
12922;DHT22;6528;48.086;16.282;2022-07-23T15:37:42;30.90;61.20
12922;DHT22;6528;48.086;16.282;2022-07-23T15:40:12;30.90;65.10
12922;DHT22;6528;48.086;16.282;2022-07-23T15:42:39;30.90;65.20
12922;DHT22;6528;48.086;16.282;2022-07-23T15:45:06;30.80;63.00
12922;DHT22;6528;48.086;16.282;2022-07-23T15:47:36;30.80;63.00
12922;DHT22;6528;48.086;16.282;2022-07-23T15:50:03;30.70;62.40
12922;DHT22;6528;48.086;16.282;2022-07-23T15:54:57;30.60;59.70
12922;DHT22;6528;48.086;16.282;2022-07-23T15:57:24;30.60;60.90
12922;DHT22;6528;48.086;16.282;2022-07-23T15:59:51;30.50;61.60
12922;DHT22;6528;48.086;16.282;2022-07-23T16:07:18;30.50;61.70
12922;DHT22;6528;48.086;16.282;2022-07-23T16:09:45;30.20;70.20
12922;DHT22;6528;48.086;16.282;2022-07-23T16:12:12;30.20;61.40
12922;DHT22;6528;48.086;16.282;2022-07-23T16:14:39;30.10;60.50
12922;DHT22;6528;48.086;16.282;2022-07-23T16:17:06;30.10;60.90
12922;DHT22;6528;48.086;16.282;2022-07-23T16:19:33;30.00;60.60
12922;DHT22;6528;48.086;16.282;2022-07-23T16:21:59;30.00;60.40
12922;DHT22;6528;48.086;16.282;2022-07-23T16:24:26;30.00;60.80
12922;DHT22;6528;48.086;16.282;2022-07-23T16:26:53;30.00;61.20
12922;DHT22;6528;48.086;16.282;2022-07-23T16:29:20;29.90;62.10
12922;DHT22;6528;48.086;16.282;2022-07-23T16:31:48;29.80;62.20
12922;DHT22;6528;48.086;16.282;2022-07-23T16:34:15;29.80;61.80
12922;DHT22;6528;48.086;16.282;2022-07-23T16:36:41;29.70;61.50
12922;DHT22;6528;48.086;16.282;2022-07-23T16:39:08;29.70;61.40
12922;DHT22;6528;48.086;16.282;2022-07-23T16:41:36;29.70;61.90
12922;DHT22;6528;48.086;16.282;2022-07-23T16:44:03;29.70;62.60
12922;DHT22;6528;48.086;16.282;2022-07-23T16:46:30;29.60;62.80
12922;DHT22;6528;48.086;16.282;2022-07-23T16:48:57;29.60;68.30
12922;DHT22;6528;48.086;16.282;2022-07-23T16:51:24;29.60;63.80
12922;DHT22;6528;48.086;16.282;2022-07-23T16:53:50;29.50;62.00
12922;DHT22;6528;48.086;16.282;2022-07-23T16:56:17;29.50;71.60
12922;DHT22;6528;48.086;16.282;2022-07-23T16:58:45;29.50;81.10
12922;DHT22;6528;48.086;16.282;2022-07-23T17:03:39;29.40;62.90
12922;DHT22;6528;48.086;16.282;2022-07-23T17:06:06;29.30;64.10
12922;DHT22;6528;48.086;16.282;2022-07-23T17:08:33;29.40;64.60
12922;DHT22;6528;48.086;16.282;2022-07-23T17:11:00;29.30;64.50
12922;DHT22;6528;48.086;16.282;2022-07-23T17:13:26;29.30;65.50
12922;DHT22;6528;48.086;16.282;2022-07-23T17:15:54;29.20;66.40
12922;DHT22;6528;48.086;16.282;2022-07-23T17:18:24;29.70;95.40
12922;DHT22;6528;48.086;16.282;2022-07-23T17:20:51;29.10;89.60
12922;DHT22;6528;48.086;16.282;2022-07-23T17:23:18;29.10;90.10
12922;DHT22;6528;48.086;16.282;2022-07-23T17:25:44;29.00;70.30
12922;DHT22;6528;48.086;16.282;2022-07-23T17:28:12;28.90;72.10
12922;DHT22;6528;48.086;16.282;2022-07-23T17:30:39;28.90;76.30
12922;DHT22;6528;48.086;16.282;2022-07-23T17:33:06;28.90;92.30